createdAt,value
2023-05-13T00:00:18.180Z,82.37
2023-05-13T00:02:47.963Z,82.53
2023-05-13T00:05:16.070Z,82.83
2023-05-13T00:07:44.127Z,82.71
2023-05-13T00:10:12.953Z,82.75
2023-05-13T00:12:41.088Z,82.83
2023-05-13T00:15:10.036Z,82.92
2023-05-13T00:17:38.195Z,83.06
2023-05-13T00:20:09.331Z,83.21
2023-05-13T00:22:37.868Z,83.32
2023-05-13T00:25:06.572Z,83.31
2023-05-13T00:27:34.672Z,83.58
2023-05-13T00:30:02.824Z,83.46
2023-05-13T00:32:31.036Z,83.53
2023-05-13T00:34:59.149Z,83.92
2023-05-13T00:37:28.634Z,83.78
2023-05-13T00:39:56.668Z,84.04
2023-05-13T00:42:24.694Z,84.03
2023-05-13T00:44:53.375Z,83.56
2023-05-13T00:47:22.771Z,83.66
2023-05-13T00:49:50.845Z,84.15
2023-05-13T00:52:18.947Z,84.10
2023-05-13T00:54:48.341Z,84.06
2023-05-13T00:57:16.528Z,84.46
2023-05-13T00:59:44.643Z,84.13
2023-05-13T01:02:19.966Z,84.11
2023-05-13T01:05:00.929Z,84.29
2023-05-13T01:07:42.347Z,83.84
2023-05-13T01:10:19.813Z,84.10
2023-05-13T01:12:54.612Z,84.05
2023-05-13T01:15:26.197Z,84.13
2023-05-13T01:17:58.166Z,84.66
2023-05-13T01:20:28.532Z,84.45
2023-05-13T01:22:58.083Z,84.42
2023-05-13T01:25:26.737Z,84.42
2023-05-13T01:27:55.893Z,84.48
2023-05-13T01:30:24.592Z,84.40
2023-05-13T01:32:53.733Z,84.33
2023-05-13T01:35:22.400Z,84.49
2023-05-13T01:37:51.778Z,84.50
2023-05-13T01:40:31.640Z,84.90
2023-05-13T01:43:05.127Z,84.89
2023-05-13T01:45:33.783Z,84.70
2023-05-13T01:48:03.716Z,84.82
2023-05-13T01:50:43.415Z,84.91
2023-05-13T01:53:11.992Z,84.80
2023-05-13T01:55:41.767Z,84.98
2023-05-13T01:58:10.629Z,84.87
2023-05-13T02:00:38.766Z,85.21
2023-05-13T02:03:07.093Z,85.33
2023-05-13T02:05:35.241Z,85.32
2023-05-13T02:08:07.690Z,85.41
2023-05-13T02:10:35.808Z,85.57
2023-05-13T02:13:05.390Z,85.68
2023-05-13T02:15:33.386Z,85.66
2023-05-13T02:18:01.508Z,86.07
2023-05-13T02:20:31.052Z,86.23
2023-05-13T02:22:59.107Z,86.25
2023-05-13T02:25:27.147Z,86.78
2023-05-13T02:27:55.208Z,86.48
2023-05-13T02:30:27.188Z,86.55
2023-05-13T02:32:56.293Z,86.51
2023-05-13T02:35:29.638Z,86.75
2023-05-13T02:37:58.195Z,86.83
2023-05-13T02:40:27.494Z,86.75
2023-05-13T02:42:55.913Z,86.91
2023-05-13T02:45:34.084Z,88.12
2023-05-13T02:48:02.437Z,87.14
2023-05-13T02:50:30.795Z,87.01
2023-05-13T02:52:58.957Z,87.13
2023-05-13T02:55:28.043Z,87.25
2023-05-13T02:57:56.854Z,87.56
2023-05-13T03:00:25.527Z,87.71
2023-05-13T03:02:55.049Z,87.42
2023-05-13T03:05:23.386Z,87.59
2023-05-13T03:07:51.724Z,88.08
2023-05-13T03:10:20.222Z,87.98
2023-05-13T03:12:48.502Z,88.02
2023-05-13T03:15:17.468Z,87.96
2023-05-13T03:17:46.083Z,88.23
2023-05-13T03:20:15.826Z,88.01
2023-05-13T03:22:44.027Z,88.21
2023-05-13T03:25:13.184Z,88.17
2023-05-13T03:27:45.967Z,88.17
2023-05-13T03:30:15.172Z,88.25
2023-05-13T03:33:00.301Z,88.08
2023-05-13T03:35:29.876Z,88.45
2023-05-13T03:37:58.036Z,88.01
2023-05-13T03:40:26.945Z,87.70
2023-05-13T03:42:55.070Z,87.78
2023-05-13T03:45:25.132Z,88.15
2023-05-13T03:47:56.915Z,87.80
2023-05-13T03:50:26.002Z,87.87
2023-05-13T03:52:56.258Z,87.57
2023-05-13T03:55:24.725Z,87.38
2023-05-13T03:57:52.757Z,87.00
2023-05-13T04:00:22.929Z,87.07
2023-05-13T04:02:51.346Z,86.95
2023-05-13T04:05:19.813Z,86.39
2023-05-13T04:07:47.930Z,86.31
2023-05-13T04:10:17.366Z,86.37
2023-05-13T04:12:45.428Z,85.84
2023-05-13T04:15:13.443Z,85.73
2023-05-13T04:17:41.773Z,85.44
2023-05-13T04:20:10.941Z,85.22
2023-05-13T04:22:38.991Z,85.13
2023-05-13T04:25:07.499Z,84.79
2023-05-13T04:27:37.112Z,84.59
2023-05-13T04:30:17.457Z,84.60
2023-05-13T04:32:46.331Z,84.46
2023-05-13T04:35:16.729Z,84.40
2023-05-13T04:37:47.561Z,84.15
2023-05-13T04:40:17.924Z,83.91
2023-05-13T04:42:54.518Z,82.94
2023-05-13T04:45:26.978Z,82.70
2023-05-13T04:47:57.615Z,82.35
2023-05-13T04:50:26.485Z,82.06
2023-05-13T04:52:56.585Z,82.02
2023-05-13T04:55:27.505Z,81.40
2023-05-13T04:57:58.397Z,81.13
2023-05-13T05:00:26.656Z,80.32
2023-05-13T05:02:54.747Z,79.76
2023-05-13T05:05:23.574Z,79.18
2023-05-13T05:07:51.619Z,77.85
2023-05-13T05:10:21.383Z,77.97
2023-05-13T05:12:54.329Z,78.13
2023-05-13T05:15:24.826Z,77.58
2023-05-13T05:17:57.181Z,76.06
2023-05-13T05:20:25.594Z,73.76
2023-05-13T05:22:56.784Z,72.87
2023-05-13T05:25:28.133Z,72.35
2023-05-13T05:27:56.918Z,72.19
2023-05-13T05:30:27.580Z,71.44
2023-05-13T05:33:04.119Z,70.75
2023-05-13T05:35:33.412Z,69.54
2023-05-13T05:38:01.716Z,68.58
2023-05-13T05:40:30.615Z,68.53
2023-05-13T05:42:58.647Z,68.05
2023-05-13T05:45:28.128Z,67.50
2023-05-13T05:47:57.793Z,67.10
2023-05-13T05:50:25.977Z,66.62
2023-05-13T05:52:54.652Z,66.69
2023-05-13T05:55:22.981Z,65.97
2023-05-13T05:57:51.724Z,65.86
2023-05-13T06:00:20.562Z,65.84
2023-05-13T06:02:50.240Z,65.84
2023-05-13T06:05:18.740Z,66.28
2023-05-13T06:07:47.728Z,65.96
2023-05-13T06:10:16.100Z,66.12
2023-05-13T06:12:44.382Z,65.93
2023-05-13T06:15:12.782Z,65.90
2023-05-13T06:17:41.288Z,65.98
2023-05-13T06:20:11.864Z,65.34
2023-05-13T06:22:41.390Z,65.22
2023-05-13T06:25:10.214Z,65.20
2023-05-13T06:27:38.355Z,64.94
2023-05-13T06:30:07.788Z,65.25
2023-05-13T06:32:36.000Z,65.13
2023-05-13T06:35:05.696Z,65.21
2023-05-13T06:37:35.402Z,65.08
2023-05-13T06:40:04.346Z,65.11
2023-05-13T06:42:40.561Z,64.81
2023-05-13T06:45:16.274Z,64.29
2023-05-13T06:47:44.386Z,64.61
2023-05-13T06:50:12.649Z,64.23
2023-05-13T06:52:42.180Z,63.72
2023-05-13T06:55:11.579Z,63.61
2023-05-13T06:57:43.299Z,63.26
2023-05-13T07:00:13.876Z,63.28
2023-05-13T07:02:42.307Z,63.47
2023-05-13T07:05:11.590Z,63.30
2023-05-13T07:07:42.256Z,62.68
2023-05-13T07:10:11.142Z,61.87
2023-05-13T07:12:39.219Z,62.20
2023-05-13T07:15:08.623Z,62.09
2023-05-13T07:17:36.899Z,62.02
2023-05-13T07:20:05.492Z,62.10
2023-05-13T07:22:33.557Z,61.67
2023-05-13T07:25:03.260Z,61.44
2023-05-13T07:27:31.323Z,61.77
2023-05-13T07:29:59.385Z,61.25
2023-05-13T07:32:27.536Z,59.86
2023-05-13T07:34:55.698Z,60.34
2023-05-13T07:37:23.846Z,60.69
2023-05-13T07:39:52.249Z,59.42
2023-05-13T07:42:21.816Z,59.45
2023-05-13T07:44:49.963Z,58.04
2023-05-13T07:47:18.007Z,57.27
2023-05-13T07:49:46.078Z,57.90
2023-05-13T07:52:14.366Z,57.47
2023-05-13T07:54:42.446Z,57.26
2023-05-13T07:57:10.439Z,57.83
2023-05-13T07:59:39.894Z,57.91
2023-05-13T08:02:08.439Z,57.30
2023-05-13T08:04:36.605Z,56.56
2023-05-13T08:07:04.997Z,56.84
2023-05-13T08:09:33.044Z,56.59
2023-05-13T08:12:01.065Z,56.26
2023-05-13T08:14:29.499Z,56.59
2023-05-13T08:16:59.028Z,56.80
2023-05-13T08:19:27.118Z,57.55
2023-05-13T08:21:55.186Z,56.92
2023-05-13T08:24:23.246Z,56.68
2023-05-13T08:26:51.361Z,54.57
2023-05-13T08:29:19.374Z,55.95
2023-05-13T08:31:47.501Z,55.51
2023-05-13T08:34:17.015Z,54.73
2023-05-13T08:36:45.120Z,55.16
2023-05-13T08:39:13.409Z,55.26
2023-05-13T08:41:43.271Z,54.41
2023-05-13T08:44:13.728Z,52.65
2023-05-13T08:46:45.856Z,53.31
2023-05-13T08:49:14.608Z,53.89
2023-05-13T08:51:44.402Z,53.12
2023-05-13T08:54:12.737Z,53.20
2023-05-13T08:56:41.104Z,53.44
2023-05-13T08:59:09.237Z,53.15
2023-05-13T09:01:37.799Z,53.03
2023-05-13T09:04:09.742Z,52.77
2023-05-13T09:06:37.911Z,51.99
2023-05-13T09:09:07.489Z,50.53
2023-05-13T09:11:35.544Z,51.10
2023-05-13T09:14:07.222Z,51.43
2023-05-13T09:16:36.510Z,51.25
2023-05-13T09:19:06.232Z,50.76
2023-05-13T09:21:36.600Z,49.57
2023-05-13T09:24:11.439Z,47.90
2023-05-13T09:26:40.124Z,49.31
2023-05-13T09:29:18.594Z,47.45
2023-05-13T09:31:48.847Z,48.83
2023-05-13T09:34:25.268Z,48.42
2023-05-13T09:36:57.641Z,48.45
2023-05-13T09:39:27.572Z,47.80
2023-05-13T09:41:56.494Z,47.81
2023-05-13T09:44:24.791Z,48.34
2023-05-13T09:46:54.341Z,48.16
2023-05-13T09:49:24.743Z,46.99
2023-05-13T09:51:52.785Z,48.17
2023-05-13T09:54:20.874Z,47.33
2023-05-13T09:56:50.600Z,47.93
2023-05-13T09:59:18.699Z,48.35
2023-05-13T10:01:47.851Z,48.12
2023-05-13T10:04:16.730Z,48.02
2023-05-13T10:06:46.350Z,47.67
2023-05-13T10:09:15.585Z,46.35
2023-05-13T10:11:48.237Z,46.72
2023-05-13T10:14:18.359Z,46.45
2023-05-13T10:16:47.993Z,47.46
2023-05-13T10:19:16.438Z,46.62
2023-05-13T10:21:45.451Z,47.16
2023-05-13T10:24:14.492Z,46.47
2023-05-13T10:26:43.784Z,47.17
2023-05-13T10:29:12.834Z,45.76
2023-05-13T10:31:43.304Z,46.63
2023-05-13T10:34:12.225Z,46.81
2023-05-13T10:36:57.201Z,46.34
2023-05-13T10:39:41.498Z,45.57
2023-05-13T10:42:41.217Z,45.47
2023-05-13T10:45:09.654Z,45.44
2023-05-13T10:47:39.777Z,45.71
2023-05-13T10:50:22.913Z,45.25
2023-05-13T10:52:51.356Z,44.67
2023-05-13T10:55:21.513Z,45.35
2023-05-13T10:58:06.316Z,43.87
2023-05-13T11:00:35.722Z,44.41
2023-05-13T11:03:29.754Z,43.46
2023-05-13T11:06:15.029Z,43.68
2023-05-13T11:08:44.820Z,44.30
2023-05-13T11:11:28.280Z,43.68
2023-05-13T11:14:03.584Z,45.16
2023-05-13T11:16:32.573Z,44.12
2023-05-13T11:19:03.743Z,45.81
2023-05-13T11:21:34.033Z,45.11
2023-05-13T11:24:05.518Z,45.21
2023-05-13T11:26:52.997Z,45.10
2023-05-13T11:29:32.436Z,45.01
2023-05-13T11:32:02.047Z,45.46
2023-05-13T11:34:32.151Z,45.50
2023-05-13T11:37:09.615Z,43.72
2023-05-13T11:39:40.583Z,43.64
2023-05-13T11:42:10.037Z,43.71
2023-05-13T11:44:46.555Z,42.64
2023-05-13T11:47:14.706Z,43.67
2023-05-13T11:49:45.243Z,42.53
2023-05-13T11:52:15.239Z,42.60
2023-05-13T11:54:48.798Z,41.16
2023-05-13T11:57:20.518Z,41.98
2023-05-13T11:59:57.566Z,41.54
2023-05-13T12:02:28.332Z,42.50
2023-05-13T12:05:01.373Z,39.04
2023-05-13T12:07:29.660Z,38.79
2023-05-13T12:09:59.574Z,39.62
2023-05-13T12:12:28.787Z,40.00
2023-05-13T12:14:57.577Z,40.94
2023-05-13T12:17:25.983Z,41.35
2023-05-13T12:20:10.358Z,38.67
2023-05-13T12:22:39.491Z,38.72
2023-05-13T12:25:53.655Z,38.00
2023-05-13T12:28:22.871Z,39.05
2023-05-13T12:30:53.597Z,39.21
2023-05-13T12:33:23.262Z,36.67
2023-05-13T12:35:53.896Z,35.88
2023-05-13T12:38:24.017Z,36.34
2023-05-13T12:40:53.278Z,35.50
2023-05-13T12:43:21.420Z,36.35
2023-05-13T12:45:54.834Z,36.44
2023-05-13T12:48:25.076Z,36.71
2023-05-13T12:50:54.751Z,37.07
2023-05-13T12:53:22.831Z,37.95
2023-05-13T12:55:50.965Z,38.39
2023-05-13T12:58:19.733Z,37.97
2023-05-13T13:00:47.980Z,37.64
2023-05-13T13:03:16.303Z,37.03
2023-05-13T13:05:44.566Z,36.56
2023-05-13T13:08:14.085Z,35.42
2023-05-13T13:10:42.460Z,35.28
2023-05-13T13:13:10.480Z,33.67
2023-05-13T13:15:39.589Z,34.73
2023-05-13T13:18:07.677Z,35.74
2023-05-13T13:20:35.887Z,36.21
2023-05-13T13:23:03.985Z,35.75
2023-05-13T13:25:33.489Z,36.16
2023-05-13T13:28:01.586Z,35.44
2023-05-13T13:30:29.613Z,36.16
2023-05-13T13:32:57.926Z,36.59
2023-05-13T13:35:25.963Z,36.33
2023-05-13T13:37:56.061Z,36.17
2023-05-13T13:40:24.577Z,35.37
2023-05-13T13:42:54.095Z,34.86
2023-05-13T13:45:24.169Z,35.87
2023-05-13T13:47:52.720Z,36.09
2023-05-13T13:50:21.014Z,35.17
2023-05-13T13:52:52.303Z,33.89
2023-05-13T13:55:21.058Z,34.64
2023-05-13T13:57:49.156Z,35.31
2023-05-13T14:00:19.002Z,35.88
2023-05-13T14:02:47.321Z,36.04
2023-05-13T14:05:15.919Z,36.12
2023-05-13T14:07:44.012Z,36.73
2023-05-13T14:10:12.065Z,36.39
2023-05-13T14:12:40.143Z,36.00
2023-05-13T14:15:09.406Z,34.71
2023-05-13T14:17:39.120Z,34.74
2023-05-13T14:20:10.247Z,34.95
2023-05-13T14:22:38.377Z,35.41
2023-05-13T14:25:07.106Z,36.12
2023-05-13T14:27:36.531Z,36.04
2023-05-13T14:30:05.410Z,36.35
2023-05-13T14:32:33.899Z,37.88
2023-05-13T14:35:03.445Z,39.78
2023-05-13T14:37:31.700Z,37.87
2023-05-13T14:39:59.710Z,38.08
2023-05-13T14:42:27.765Z,38.45
2023-05-13T14:44:55.987Z,38.44
2023-05-13T14:47:24.058Z,39.96
2023-05-13T14:49:56.324Z,40.54
2023-05-13T14:52:37.894Z,38.82
2023-05-13T14:55:06.725Z,39.59
2023-05-13T14:57:34.886Z,38.17
2023-05-13T15:00:03.054Z,37.54
2023-05-13T15:02:31.252Z,37.59
2023-05-13T15:04:59.584Z,37.22
2023-05-13T15:07:27.803Z,37.58
2023-05-13T15:09:57.316Z,37.24
2023-05-13T15:12:26.057Z,36.05
2023-05-13T15:14:54.380Z,35.84
2023-05-13T15:17:23.083Z,35.58
2023-05-13T15:19:51.296Z,34.94
2023-05-13T15:22:19.523Z,35.98
2023-05-13T15:24:47.674Z,36.19
2023-05-13T15:27:17.330Z,36.21
2023-05-13T15:29:45.399Z,35.03
2023-05-13T15:32:13.381Z,35.75
2023-05-13T15:34:41.432Z,36.05
2023-05-13T15:37:09.524Z,35.50
2023-05-13T15:39:37.757Z,36.02
2023-05-13T15:42:06.284Z,35.80
2023-05-13T15:44:35.630Z,35.56
2023-05-13T15:47:06.021Z,36.34
2023-05-13T15:49:34.415Z,34.40
2023-05-13T15:52:02.722Z,35.85
2023-05-13T15:54:31.604Z,35.51
2023-05-13T15:57:00.226Z,35.80
2023-05-13T15:59:28.611Z,35.87
2023-05-13T16:01:58.070Z,35.94
2023-05-13T16:04:26.489Z,35.11
2023-05-13T16:06:54.534Z,36.74
2023-05-13T16:09:22.588Z,35.89
2023-05-13T16:11:50.590Z,35.57
2023-05-13T16:14:19.590Z,34.87
2023-05-13T16:16:47.823Z,33.84
2023-05-13T16:19:17.297Z,34.91
2023-05-13T16:21:45.820Z,34.71
2023-05-13T16:24:13.885Z,34.60
2023-05-13T16:26:42.024Z,34.67
2023-05-13T16:29:10.066Z,34.74
2023-05-13T16:31:38.382Z,34.41
2023-05-13T16:34:06.376Z,33.02
2023-05-13T16:36:35.817Z,32.75
2023-05-13T16:39:06.698Z,33.23
2023-05-13T16:41:35.353Z,33.47
2023-05-13T16:44:03.626Z,33.33
2023-05-13T16:46:35.450Z,33.17
2023-05-13T16:49:03.844Z,32.99
2023-05-13T16:51:31.984Z,32.68
2023-05-13T16:54:01.396Z,32.82
2023-05-13T16:56:31.357Z,31.78
2023-05-13T16:58:59.715Z,33.00
2023-05-13T17:01:27.962Z,33.27
2023-05-13T17:03:56.077Z,33.25
2023-05-13T17:06:24.138Z,32.31
2023-05-13T17:08:52.216Z,32.91
2023-05-13T17:11:21.915Z,32.69
2023-05-13T17:13:50.001Z,32.80
2023-05-13T17:16:18.106Z,32.75
2023-05-13T17:18:46.241Z,32.65
2023-05-13T17:21:14.351Z,32.83
2023-05-13T17:23:42.412Z,33.09
2023-05-13T17:26:10.566Z,32.64
2023-05-13T17:28:40.398Z,32.75
2023-05-13T17:31:09.808Z,32.51
2023-05-13T17:33:37.938Z,33.03
2023-05-13T17:36:06.861Z,33.09
2023-05-13T17:38:35.036Z,33.37
2023-05-13T17:41:03.033Z,33.35
2023-05-13T17:43:31.058Z,33.73
2023-05-13T17:46:00.714Z,33.42
2023-05-13T17:48:29.150Z,33.13
2023-05-13T17:50:57.462Z,32.71
2023-05-13T17:53:25.486Z,32.64
2023-05-13T17:55:53.808Z,32.67
2023-05-13T17:58:21.901Z,33.11
2023-05-13T18:00:50.097Z,32.78
2023-05-13T18:03:21.622Z,33.19
2023-05-13T18:05:49.900Z,32.96
2023-05-13T18:08:18.020Z,33.72
2023-05-13T18:10:46.036Z,34.10
2023-05-13T18:13:14.064Z,34.51
2023-05-13T18:15:42.242Z,34.70
2023-05-13T18:18:10.443Z,34.58
2023-05-13T18:20:42.123Z,34.98
2023-05-13T18:23:10.214Z,35.53
2023-05-13T18:25:45.414Z,35.88
2023-05-13T18:28:22.947Z,36.37
2023-05-13T18:30:50.991Z,36.60
2023-05-13T18:33:20.951Z,36.77
2023-05-13T18:35:50.381Z,36.94
2023-05-13T18:38:18.470Z,37.47
2023-05-13T18:40:46.539Z,37.78
2023-05-13T18:43:14.605Z,37.83
2023-05-13T18:45:43.122Z,38.26
2023-05-13T18:48:11.330Z,38.27
2023-05-13T18:50:39.477Z,38.90
2023-05-13T18:53:08.913Z,38.85
2023-05-13T18:55:37.338Z,39.10
2023-05-13T18:58:06.690Z,39.43
2023-05-13T19:00:34.807Z,39.52
2023-05-13T19:03:02.963Z,40.03
2023-05-13T19:05:31.254Z,40.17
2023-05-13T19:08:00.578Z,40.28
2023-05-13T19:10:30.132Z,40.72
2023-05-13T19:12:58.201Z,41.39
2023-05-13T19:15:26.469Z,41.80
2023-05-13T19:17:54.596Z,42.21
2023-05-13T19:20:23.005Z,42.78
2023-05-13T19:22:51.221Z,43.09
2023-05-13T19:25:19.258Z,43.73
2023-05-13T19:27:49.408Z,44.34
2023-05-13T19:30:17.569Z,44.86
2023-05-13T19:32:45.718Z,45.58
2023-05-13T19:35:13.817Z,46.25
2023-05-13T19:37:41.953Z,46.84
2023-05-13T19:40:10.833Z,47.47
2023-05-13T19:42:38.948Z,47.63
2023-05-13T19:45:10.658Z,48.37
2023-05-13T19:47:39.088Z,48.64
2023-05-13T19:50:07.897Z,49.24
2023-05-13T19:52:36.086Z,49.77
2023-05-13T19:55:04.473Z,50.09
2023-05-13T19:57:32.483Z,50.60
2023-05-13T20:00:00.876Z,51.01
2023-05-13T20:02:30.748Z,51.49
2023-05-13T20:04:59.078Z,52.02
2023-05-13T20:07:27.180Z,52.38
2023-05-13T20:09:55.298Z,52.80
2023-05-13T20:12:23.720Z,53.16
2023-05-13T20:14:55.577Z,53.61
2023-05-13T20:17:23.697Z,53.97
2023-05-13T20:19:54.578Z,54.50
2023-05-13T20:22:22.949Z,54.50
2023-05-13T20:24:51.757Z,54.87
2023-05-13T20:27:19.939Z,55.30
2023-05-13T20:29:49.220Z,55.74
2023-05-13T20:32:18.445Z,56.07
2023-05-13T20:34:46.545Z,56.55
2023-05-13T20:37:16.924Z,57.04
2023-05-13T20:39:45.107Z,57.58
2023-05-13T20:42:13.172Z,58.34
2023-05-13T20:44:41.228Z,58.59
2023-05-13T20:47:09.283Z,58.84
2023-05-13T20:49:38.555Z,59.37
2023-05-13T20:52:09.141Z,59.29
2023-05-13T20:54:39.242Z,59.84
2023-05-13T20:57:08.320Z,60.95
2023-05-13T20:59:36.341Z,60.84
2023-05-13T21:02:04.811Z,60.81
2023-05-13T21:04:32.878Z,61.17
2023-05-13T21:07:00.890Z,61.40
2023-05-13T21:09:28.950Z,61.76
2023-05-13T21:11:58.400Z,62.10
2023-05-13T21:14:26.519Z,61.98
2023-05-13T21:16:54.523Z,62.21
2023-05-13T21:19:23.498Z,62.45
2023-05-13T21:21:51.949Z,62.74
2023-05-13T21:24:20.528Z,63.07
2023-05-13T21:26:49.228Z,63.11
2023-05-13T21:29:19.108Z,63.84
2023-05-13T21:31:48.151Z,63.67
2023-05-13T21:34:16.215Z,63.67
2023-05-13T21:36:44.475Z,63.87
2023-05-13T21:39:12.597Z,63.87
2023-05-13T21:41:41.378Z,64.51
2023-05-13T21:44:09.511Z,64.38
2023-05-13T21:46:38.893Z,64.53
2023-05-13T21:49:06.936Z,64.59
2023-05-13T21:51:34.935Z,64.77
2023-05-13T21:54:03.032Z,65.05
2023-05-13T21:56:31.083Z,65.13
2023-05-13T21:58:59.065Z,65.32
2023-05-13T22:01:27.181Z,65.46
2023-05-13T22:03:56.604Z,65.54
2023-05-13T22:06:24.665Z,65.44
2023-05-13T22:08:52.730Z,65.41
2023-05-13T22:11:20.987Z,65.61
2023-05-13T22:13:49.094Z,65.79
2023-05-13T22:16:17.190Z,66.07
2023-05-13T22:18:45.363Z,66.32
2023-05-13T22:21:14.916Z,66.75
2023-05-13T22:23:42.947Z,66.91
2023-05-13T22:26:11.198Z,67.03
2023-05-13T22:28:39.256Z,67.09
2023-05-13T22:31:08.394Z,67.22
2023-05-13T22:33:36.459Z,67.42
2023-05-13T22:36:05.255Z,67.83
2023-05-13T22:38:34.701Z,67.96
2023-05-13T22:41:02.696Z,68.05
2023-05-13T22:43:30.838Z,68.21
2023-05-13T22:45:58.855Z,68.25
2023-05-13T22:48:26.953Z,68.47
2023-05-13T22:50:57.150Z,68.63
2023-05-13T22:53:25.609Z,68.92
2023-05-13T22:55:55.084Z,69.00
2023-05-13T22:58:23.155Z,69.49
2023-05-13T23:00:51.151Z,69.76
2023-05-13T23:03:19.223Z,69.85
2023-05-13T23:05:47.251Z,70.27
2023-05-13T23:08:15.273Z,70.08
2023-05-13T23:10:43.380Z,70.60
2023-05-13T23:13:12.784Z,70.61
2023-05-13T23:15:40.948Z,70.64
2023-05-13T23:18:09.002Z,70.54
2023-05-13T23:20:37.102Z,70.62
2023-05-13T23:23:05.193Z,70.82
2023-05-13T23:25:33.222Z,70.57
2023-05-13T23:28:01.272Z,70.69
2023-05-13T23:30:30.820Z,70.70
2023-05-13T23:32:58.903Z,70.50
2023-05-13T23:35:26.974Z,70.34
2023-05-13T23:37:55.019Z,70.65
2023-05-13T23:40:23.376Z,71.03
2023-05-13T23:42:51.563Z,71.07
2023-05-13T23:45:19.714Z,71.18
2023-05-13T23:47:49.227Z,71.07
2023-05-13T23:50:17.355Z,71.25
2023-05-13T23:52:45.553Z,71.36
2023-05-13T23:55:13.764Z,71.44
2023-05-13T23:57:41.807Z,71.50
